sensor_id;sensor_type;location;lat;lon;timestamp;temperature;humidity
17587;DHT22;8912;52.336;17.172;2022-07-05T00:02:15;16.30;99.90
17587;DHT22;8912;52.336;17.172;2022-07-05T00:04:43;16.50;99.90
17587;DHT22;8912;52.336;17.172;2022-07-05T00:07:13;16.50;99.90
17587;DHT22;8912;52.336;17.172;2022-07-05T00:09:50;16.40;99.90
17587;DHT22;8912;52.336;17.172;2022-07-05T00:12:20;16.30;99.90
17587;DHT22;8912;52.336;17.172;2022-07-05T00:14:49;16.30;99.90
17587;DHT22;8912;52.336;17.172;2022-07-05T00:17:20;16.30;99.90
17587;DHT22;8912;52.336;17.172;2022-07-05T00:19:48;16.30;99.90
17587;DHT22;8912;52.336;17.172;2022-07-05T00:22:17;16.30;99.90
17587;DHT22;8912;52.336;17.172;2022-07-05T00:24:46;16.00;99.90
17587;DHT22;8912;52.336;17.172;2022-07-05T00:27:14;15.80;99.90
17587;DHT22;8912;52.336;17.172;2022-07-05T00:29:43;15.70;99.90
17587;DHT22;8912;52.336;17.172;2022-07-05T00:32:12;15.70;99.90
17587;DHT22;8912;52.336;17.172;2022-07-05T00:34:43;15.80;99.90
17587;DHT22;8912;52.336;17.172;2022-07-05T00:37:12;15.80;99.90
17587;DHT22;8912;52.336;17.172;2022-07-05T00:39:41;15.90;99.90
17587;DHT22;8912;52.336;17.172;2022-07-05T00:42:10;16.10;99.90
17587;DHT22;8912;52.336;17.172;2022-07-05T00:44:39;16.40;99.90
17587;DHT22;8912;52.336;17.172;2022-07-05T00:47:11;16.20;99.90
17587;DHT22;8912;52.336;17.172;2022-07-05T00:49:40;16.10;99.90
17587;DHT22;8912;52.336;17.172;2022-07-05T00:52:11;16.10;99.90
17587;DHT22;8912;52.336;17.172;2022-07-05T00:54:46;16.00;99.90
17587;DHT22;8912;52.336;17.172;2022-07-05T00:57:16;16.00;99.90
17587;DHT22;8912;52.336;17.172;2022-07-05T00:59:45;15.90;99.90
17587;DHT22;8912;52.336;17.172;2022-07-05T01:02:13;15.90;99.90
17587;DHT22;8912;52.336;17.172;2022-07-05T01:04:47;15.90;99.90
17587;DHT22;8912;52.336;17.172;2022-07-05T01:07:21;15.80;99.90
17587;DHT22;8912;52.336;17.172;2022-07-05T01:09:50;15.70;99.90
17587;DHT22;8912;52.336;17.172;2022-07-05T01:12:19;15.90;99.90
17587;DHT22;8912;52.336;17.172;2022-07-05T01:14:48;15.60;99.90
17587;DHT22;8912;52.336;17.172;2022-07-05T01:17:18;15.60;99.90
17587;DHT22;8912;52.336;17.172;2022-07-05T01:19:47;15.60;99.90
17587;DHT22;8912;52.336;17.172;2022-07-05T01:22:19;15.60;99.90
17587;DHT22;8912;52.336;17.172;2022-07-05T01:24:50;15.60;99.90
17587;DHT22;8912;52.336;17.172;2022-07-05T01:27:20;15.60;99.90
17587;DHT22;8912;52.336;17.172;2022-07-05T01:29:49;15.50;99.90
17587;DHT22;8912;52.336;17.172;2022-07-05T01:32:19;15.50;99.90
17587;DHT22;8912;52.336;17.172;2022-07-05T01:34:48;15.60;99.90
17587;DHT22;8912;52.336;17.172;2022-07-05T01:37:16;15.50;99.90
17587;DHT22;8912;52.336;17.172;2022-07-05T01:39:46;15.50;99.90
17587;DHT22;8912;52.336;17.172;2022-07-05T01:42:16;15.40;99.90
17587;DHT22;8912;52.336;17.172;2022-07-05T01:44:45;15.40;99.90
17587;DHT22;8912;52.336;17.172;2022-07-05T01:47:15;15.30;99.90
17587;DHT22;8912;52.336;17.172;2022-07-05T01:49:47;15.20;99.90
17587;DHT22;8912;52.336;17.172;2022-07-05T01:52:16;15.10;99.90
17587;DHT22;8912;52.336;17.172;2022-07-05T01:54:47;15.10;99.90
17587;DHT22;8912;52.336;17.172;2022-07-05T01:57:18;15.00;99.90
17587;DHT22;8912;52.336;17.172;2022-07-05T01:59:47;14.90;99.90
17587;DHT22;8912;52.336;17.172;2022-07-05T02:02:16;14.80;99.90
17587;DHT22;8912;52.336;17.172;2022-07-05T02:04:47;14.70;99.90
17587;DHT22;8912;52.336;17.172;2022-07-05T02:07:16;14.90;99.90
17587;DHT22;8912;52.336;17.172;2022-07-05T02:09:45;14.90;99.90
17587;DHT22;8912;52.336;17.172;2022-07-05T02:12:14;14.90;99.90
17587;DHT22;8912;52.336;17.172;2022-07-05T02:14:44;15.10;99.90
17587;DHT22;8912;52.336;17.172;2022-07-05T02:17:17;15.00;99.90
17587;DHT22;8912;52.336;17.172;2022-07-05T02:19:50;15.00;99.90
17587;DHT22;8912;52.336;17.172;2022-07-05T02:22:20;14.70;99.90
17587;DHT22;8912;52.336;17.172;2022-07-05T02:24:49;14.60;99.90
17587;DHT22;8912;52.336;17.172;2022-07-05T02:27:21;14.50;99.90
17587;DHT22;8912;52.336;17.172;2022-07-05T02:29:53;14.50;99.90
17587;DHT22;8912;52.336;17.172;2022-07-05T02:32:31;14.60;99.90
17587;DHT22;8912;52.336;17.172;2022-07-05T02:35:02;14.80;99.90
17587;DHT22;8912;52.336;17.172;2022-07-05T02:37:31;14.90;99.90
17587;DHT22;8912;52.336;17.172;2022-07-05T02:40:02;15.20;99.90
17587;DHT22;8912;52.336;17.172;2022-07-05T02:42:35;15.10;99.90
17587;DHT22;8912;52.336;17.172;2022-07-05T02:45:07;15.00;99.90
17587;DHT22;8912;52.336;17.172;2022-07-05T02:47:36;14.90;99.90
17587;DHT22;8912;52.336;17.172;2022-07-05T02:50:07;15.00;99.90
17587;DHT22;8912;52.336;17.172;2022-07-05T02:52:41;15.00;99.90
17587;DHT22;8912;52.336;17.172;2022-07-05T02:55:11;15.00;99.90
17587;DHT22;8912;52.336;17.172;2022-07-05T02:57:39;15.00;99.90
17587;DHT22;8912;52.336;17.172;2022-07-05T03:00:13;15.20;99.90
17587;DHT22;8912;52.336;17.172;2022-07-05T03:02:45;15.40;99.90
17587;DHT22;8912;52.336;17.172;2022-07-05T03:05:15;15.50;99.90
17587;DHT22;8912;52.336;17.172;2022-07-05T03:07:53;15.60;99.90
17587;DHT22;8912;52.336;17.172;2022-07-05T03:10:22;15.60;99.90
17587;DHT22;8912;52.336;17.172;2022-07-05T03:12:54;15.60;99.90
17587;DHT22;8912;52.336;17.172;2022-07-05T03:15:24;15.60;99.90
17587;DHT22;8912;52.336;17.172;2022-07-05T03:17:53;15.60;99.90
17587;DHT22;8912;52.336;17.172;2022-07-05T03:20:25;15.70;99.90
17587;DHT22;8912;52.336;17.172;2022-07-05T03:22:55;15.70;99.90
17587;DHT22;8912;52.336;17.172;2022-07-05T03:25:32;15.70;99.90
17587;DHT22;8912;52.336;17.172;2022-07-05T03:28:04;15.80;99.90
17587;DHT22;8912;52.336;17.172;2022-07-05T03:30:35;15.80;99.90
17587;DHT22;8912;52.336;17.172;2022-07-05T03:33:03;15.90;99.90
17587;DHT22;8912;52.336;17.172;2022-07-05T03:35:33;16.10;99.90
17587;DHT22;8912;52.336;17.172;2022-07-05T03:38:02;16.00;99.90
17587;DHT22;8912;52.336;17.172;2022-07-05T03:40:31;16.10;99.90
17587;DHT22;8912;52.336;17.172;2022-07-05T03:43:00;16.20;99.90
17587;DHT22;8912;52.336;17.172;2022-07-05T03:45:34;16.30;99.90
17587;DHT22;8912;52.336;17.172;2022-07-05T03:48:05;16.30;99.90
17587;DHT22;8912;52.336;17.172;2022-07-05T03:50:54;16.50;99.90
17587;DHT22;8912;52.336;17.172;2022-07-05T03:53:23;16.80;99.90
17587;DHT22;8912;52.336;17.172;2022-07-05T03:55:52;17.00;99.90
17587;DHT22;8912;52.336;17.172;2022-07-05T03:58:22;17.20;99.90
17587;DHT22;8912;52.336;17.172;2022-07-05T04:00:53;17.60;99.90
17587;DHT22;8912;52.336;17.172;2022-07-05T04:03:25;18.00;99.90
17587;DHT22;8912;52.336;17.172;2022-07-05T04:05:54;18.30;99.90
17587;DHT22;8912;52.336;17.172;2022-07-05T04:08:23;18.40;99.90
17587;DHT22;8912;52.336;17.172;2022-07-05T04:10:52;18.60;99.90
17587;DHT22;8912;52.336;17.172;2022-07-05T04:13:22;19.20;99.90
17587;DHT22;8912;52.336;17.172;2022-07-05T04:15:55;20.30;99.90
17587;DHT22;8912;52.336;17.172;2022-07-05T04:18:24;21.60;99.90
17587;DHT22;8912;52.336;17.172;2022-07-05T04:20:56;22.70;99.90
17587;DHT22;8912;52.336;17.172;2022-07-05T04:23:25;23.20;99.90
17587;DHT22;8912;52.336;17.172;2022-07-05T04:25:55;22.60;99.90
17587;DHT22;8912;52.336;17.172;2022-07-05T04:28:30;21.90;99.90
17587;DHT22;8912;52.336;17.172;2022-07-05T04:31:03;21.40;99.90
17587;DHT22;8912;52.336;17.172;2022-07-05T04:33:36;20.90;99.90
17587;DHT22;8912;52.336;17.172;2022-07-05T04:36:05;20.20;99.90
17587;DHT22;8912;52.336;17.172;2022-07-05T04:38:35;19.70;99.90
17587;DHT22;8912;52.336;17.172;2022-07-05T04:41:04;19.40;99.90
17587;DHT22;8912;52.336;17.172;2022-07-05T04:43:34;19.20;99.90
17587;DHT22;8912;52.336;17.172;2022-07-05T04:46:09;19.10;99.90
17587;DHT22;8912;52.336;17.172;2022-07-05T04:48:38;19.30;99.90
17587;DHT22;8912;52.336;17.172;2022-07-05T04:51:09;19.50;99.90
17587;DHT22;8912;52.336;17.172;2022-07-05T04:53:38;19.70;99.90
17587;DHT22;8912;52.336;17.172;2022-07-05T04:56:07;19.70;99.90
17587;DHT22;8912;52.336;17.172;2022-07-05T04:58:36;19.70;99.90
17587;DHT22;8912;52.336;17.172;2022-07-05T05:01:04;19.60;99.90
17587;DHT22;8912;52.336;17.172;2022-07-05T05:03:34;19.50;99.90
17587;DHT22;8912;52.336;17.172;2022-07-05T05:06:03;19.20;99.90
17587;DHT22;8912;52.336;17.172;2022-07-05T05:08:32;19.30;99.90
17587;DHT22;8912;52.336;17.172;2022-07-05T05:11:00;19.40;99.90
17587;DHT22;8912;52.336;17.172;2022-07-05T05:13:29;19.60;99.90
17587;DHT22;8912;52.336;17.172;2022-07-05T05:15:57;20.00;99.90
17587;DHT22;8912;52.336;17.172;2022-07-05T05:18:26;20.20;99.90
17587;DHT22;8912;52.336;17.172;2022-07-05T05:20:56;20.30;99.90
17587;DHT22;8912;52.336;17.172;2022-07-05T05:23:25;20.30;99.90
17587;DHT22;8912;52.336;17.172;2022-07-05T05:25:54;20.40;99.90
17587;DHT22;8912;52.336;17.172;2022-07-05T05:28:22;20.50;99.90
17587;DHT22;8912;52.336;17.172;2022-07-05T05:30:51;20.90;99.90
17587;DHT22;8912;52.336;17.172;2022-07-05T05:33:20;21.00;99.90
17587;DHT22;8912;52.336;17.172;2022-07-05T05:35:55;21.30;99.90
17587;DHT22;8912;52.336;17.172;2022-07-05T05:38:24;21.40;99.90
17587;DHT22;8912;52.336;17.172;2022-07-05T05:40:52;21.10;99.90
17587;DHT22;8912;52.336;17.172;2022-07-05T05:43:21;21.00;99.90
17587;DHT22;8912;52.336;17.172;2022-07-05T05:45:50;20.90;99.90
17587;DHT22;8912;52.336;17.172;2022-07-05T05:48:19;20.90;99.90
17587;DHT22;8912;52.336;17.172;2022-07-05T05:50:48;20.80;99.90
17587;DHT22;8912;52.336;17.172;2022-07-05T05:53:19;20.70;99.90
17587;DHT22;8912;52.336;17.172;2022-07-05T05:55:53;20.70;99.90
17587;DHT22;8912;52.336;17.172;2022-07-05T05:58:22;20.80;99.90
17587;DHT22;8912;52.336;17.172;2022-07-05T06:00:52;20.90;99.90
17587;DHT22;8912;52.336;17.172;2022-07-05T06:03:22;20.90;99.90
17587;DHT22;8912;52.336;17.172;2022-07-05T06:05:51;21.40;99.90
17587;DHT22;8912;52.336;17.172;2022-07-05T06:08:21;21.80;99.90
17587;DHT22;8912;52.336;17.172;2022-07-05T06:10:51;21.90;99.90
17587;DHT22;8912;52.336;17.172;2022-07-05T06:13:27;21.80;99.90
17587;DHT22;8912;52.336;17.172;2022-07-05T06:15:56;21.80;99.90
17587;DHT22;8912;52.336;17.172;2022-07-05T06:18:25;22.10;99.90
17587;DHT22;8912;52.336;17.172;2022-07-05T06:20:54;22.20;99.90
17587;DHT22;8912;52.336;17.172;2022-07-05T06:23:25;21.90;99.90
17587;DHT22;8912;52.336;17.172;2022-07-05T06:25:53;22.00;99.90
17587;DHT22;8912;52.336;17.172;2022-07-05T06:28:22;22.00;99.90
17587;DHT22;8912;52.336;17.172;2022-07-05T06:30:51;22.00;99.90
17587;DHT22;8912;52.336;17.172;2022-07-05T06:33:20;21.80;99.90
17587;DHT22;8912;52.336;17.172;2022-07-05T06:35:49;21.90;99.90
17587;DHT22;8912;52.336;17.172;2022-07-05T06:38:18;22.00;99.90
17587;DHT22;8912;52.336;17.172;2022-07-05T06:40:48;22.00;99.90
17587;DHT22;8912;52.336;17.172;2022-07-05T06:43:17;22.10;99.90
17587;DHT22;8912;52.336;17.172;2022-07-05T06:45:53;21.80;99.90
17587;DHT22;8912;52.336;17.172;2022-07-05T06:48:23;21.80;99.90
17587;DHT22;8912;52.336;17.172;2022-07-05T06:50:51;21.80;99.90
17587;DHT22;8912;52.336;17.172;2022-07-05T06:53:20;21.80;99.90
17587;DHT22;8912;52.336;17.172;2022-07-05T06:55:52;21.90;99.90
17587;DHT22;8912;52.336;17.172;2022-07-05T06:58:24;22.00;99.90
17587;DHT22;8912;52.336;17.172;2022-07-05T07:00:53;22.10;99.90
17587;DHT22;8912;52.336;17.172;2022-07-05T07:03:42;22.10;99.90
17587;DHT22;8912;52.336;17.172;2022-07-05T07:06:31;22.30;99.90
17587;DHT22;8912;52.336;17.172;2022-07-05T07:09:00;22.50;99.70
17587;DHT22;8912;52.336;17.172;2022-07-05T07:11:44;22.30;97.80
17587;DHT22;8912;52.336;17.172;2022-07-05T07:14:13;22.10;95.90
17587;DHT22;8912;52.336;17.172;2022-07-05T07:16:41;22.20;97.10
17587;DHT22;8912;52.336;17.172;2022-07-05T07:19:10;22.50;96.80
17587;DHT22;8912;52.336;17.172;2022-07-05T07:21:41;22.80;94.10
17587;DHT22;8912;52.336;17.172;2022-07-05T07:24:10;22.80;97.10
17587;DHT22;8912;52.336;17.172;2022-07-05T07:26:40;22.90;95.80
17587;DHT22;8912;52.336;17.172;2022-07-05T07:29:27;23.20;96.20
17587;DHT22;8912;52.336;17.172;2022-07-05T07:31:56;23.30;95.60
17587;DHT22;8912;52.336;17.172;2022-07-05T07:34:25;23.60;93.70
17587;DHT22;8912;52.336;17.172;2022-07-05T07:36:55;23.70;92.90
17587;DHT22;8912;52.336;17.172;2022-07-05T07:39:24;23.60;94.00
17587;DHT22;8912;52.336;17.172;2022-07-05T07:41:53;23.40;93.40
17587;DHT22;8912;52.336;17.172;2022-07-05T07:44:21;23.60;93.30
17587;DHT22;8912;52.336;17.172;2022-07-05T07:46:52;23.60;92.60
17587;DHT22;8912;52.336;17.172;2022-07-05T07:49:21;23.70;93.20
17587;DHT22;8912;52.336;17.172;2022-07-05T07:51:51;23.70;92.90
17587;DHT22;8912;52.336;17.172;2022-07-05T07:54:19;23.80;93.50
17587;DHT22;8912;52.336;17.172;2022-07-05T07:56:48;23.80;90.60
17587;DHT22;8912;52.336;17.172;2022-07-05T07:59:17;24.00;91.10
17587;DHT22;8912;52.336;17.172;2022-07-05T08:01:46;24.20;90.40
17587;DHT22;8912;52.336;17.172;2022-07-05T08:04:16;24.20;90.30
17587;DHT22;8912;52.336;17.172;2022-07-05T08:06:45;24.10;90.70
17587;DHT22;8912;52.336;17.172;2022-07-05T08:09:14;23.90;86.20
17587;DHT22;8912;52.336;17.172;2022-07-05T08:11:45;24.00;90.10
17587;DHT22;8912;52.336;17.172;2022-07-05T08:14:15;24.10;86.80
17587;DHT22;8912;52.336;17.172;2022-07-05T08:16:46;24.10;86.70
17587;DHT22;8912;52.336;17.172;2022-07-05T08:19:20;24.10;88.70
17587;DHT22;8912;52.336;17.172;2022-07-05T08:22:07;24.00;91.60
17587;DHT22;8912;52.336;17.172;2022-07-05T08:24:37;24.50;87.20
17587;DHT22;8912;52.336;17.172;2022-07-05T08:27:07;24.90;85.90
17587;DHT22;8912;52.336;17.172;2022-07-05T08:29:36;25.00;90.50
17587;DHT22;8912;52.336;17.172;2022-07-05T08:32:06;24.90;90.00
17587;DHT22;8912;52.336;17.172;2022-07-05T08:34:37;24.80;87.80
17587;DHT22;8912;52.336;17.172;2022-07-05T08:37:06;25.00;86.10
17587;DHT22;8912;52.336;17.172;2022-07-05T08:39:42;25.20;87.60
17587;DHT22;8912;52.336;17.172;2022-07-05T08:42:11;25.10;87.30
17587;DHT22;8912;52.336;17.172;2022-07-05T08:44:42;25.30;85.50
17587;DHT22;8912;52.336;17.172;2022-07-05T08:47:12;25.00;83.00
17587;DHT22;8912;52.336;17.172;2022-07-05T08:49:45;23.90;80.70
17587;DHT22;8912;52.336;17.172;2022-07-05T08:52:18;25.00;81.10
17587;DHT22;8912;52.336;17.172;2022-07-05T08:54:49;24.80;81.00
17587;DHT22;8912;52.336;17.172;2022-07-05T08:57:19;25.00;77.10
17587;DHT22;8912;52.336;17.172;2022-07-05T08:59:47;25.10;77.00
17587;DHT22;8912;52.336;17.172;2022-07-05T09:02:17;25.20;75.90
17587;DHT22;8912;52.336;17.172;2022-07-05T09:04:49;25.60;74.50
17587;DHT22;8912;52.336;17.172;2022-07-05T09:07:20;25.40;74.30
17587;DHT22;8912;52.336;17.172;2022-07-05T09:09:51;25.50;69.80
17587;DHT22;8912;52.336;17.172;2022-07-05T09:12:20;25.30;63.50
17587;DHT22;8912;52.336;17.172;2022-07-05T09:14:53;25.30;65.70
17587;DHT22;8912;52.336;17.172;2022-07-05T09:17:23;25.40;56.40
17587;DHT22;8912;52.336;17.172;2022-07-05T09:20:10;25.60;60.30
17587;DHT22;8912;52.336;17.172;2022-07-05T09:22:44;25.70;57.10
17587;DHT22;8912;52.336;17.172;2022-07-05T09:25:19;25.60;58.20
17587;DHT22;8912;52.336;17.172;2022-07-05T09:27:50;26.00;57.10
17587;DHT22;8912;52.336;17.172;2022-07-05T09:30:29;26.20;61.60
17587;DHT22;8912;52.336;17.172;2022-07-05T09:33:01;25.90;66.50
17587;DHT22;8912;52.336;17.172;2022-07-05T09:35:33;26.20;68.80
17587;DHT22;8912;52.336;17.172;2022-07-05T09:38:02;26.30;69.80
17587;DHT22;8912;52.336;17.172;2022-07-05T09:40:32;26.00;68.20
17587;DHT22;8912;52.336;17.172;2022-07-05T09:43:11;25.80;68.10
17587;DHT22;8912;52.336;17.172;2022-07-05T09:45:50;26.20;65.90
17587;DHT22;8912;52.336;17.172;2022-07-05T09:48:19;26.30;66.90
17587;DHT22;8912;52.336;17.172;2022-07-05T09:51:08;26.90;63.50
17587;DHT22;8912;52.336;17.172;2022-07-05T09:53:58;26.40;60.70
17587;DHT22;8912;52.336;17.172;2022-07-05T09:56:43;26.60;65.20
17587;DHT22;8912;52.336;17.172;2022-07-05T09:59:14;26.70;60.10
17587;DHT22;8912;52.336;17.172;2022-07-05T10:01:43;26.40;61.70
17587;DHT22;8912;52.336;17.172;2022-07-05T10:04:12;26.70;60.80
17587;DHT22;8912;52.336;17.172;2022-07-05T10:06:42;26.60;61.10
17587;DHT22;8912;52.336;17.172;2022-07-05T10:09:12;26.10;58.80
17587;DHT22;8912;52.336;17.172;2022-07-05T10:11:43;25.70;58.70
17587;DHT22;8912;52.336;17.172;2022-07-05T10:14:16;26.00;60.10
17587;DHT22;8912;52.336;17.172;2022-07-05T10:16:50;26.40;63.40
17587;DHT22;8912;52.336;17.172;2022-07-05T10:19:20;26.80;58.60
17587;DHT22;8912;52.336;17.172;2022-07-05T10:21:51;27.10;60.10
17587;DHT22;8912;52.336;17.172;2022-07-05T10:24:40;27.30;57.10
17587;DHT22;8912;52.336;17.172;2022-07-05T10:27:10;27.00;56.10
17587;DHT22;8912;52.336;17.172;2022-07-05T10:29:40;27.10;56.30
17587;DHT22;8912;52.336;17.172;2022-07-05T10:32:10;27.30;59.70
17587;DHT22;8912;52.336;17.172;2022-07-05T10:34:39;27.50;55.50
17587;DHT22;8912;52.336;17.172;2022-07-05T10:37:29;27.60;56.90
17587;DHT22;8912;52.336;17.172;2022-07-05T10:39:59;28.20;57.20
17587;DHT22;8912;52.336;17.172;2022-07-05T10:42:37;28.00;55.20
17587;DHT22;8912;52.336;17.172;2022-07-05T10:45:29;27.30;55.40
17587;DHT22;8912;52.336;17.172;2022-07-05T10:48:15;27.20;56.90
17587;DHT22;8912;52.336;17.172;2022-07-05T10:50:46;27.40;57.10
17587;DHT22;8912;52.336;17.172;2022-07-05T10:53:20;27.50;57.10
17587;DHT22;8912;52.336;17.172;2022-07-05T10:55:51;27.50;58.70
17587;DHT22;8912;52.336;17.172;2022-07-05T10:58:29;27.70;55.70
17587;DHT22;8912;52.336;17.172;2022-07-05T11:04:27;27.90;56.50
17587;DHT22;8912;52.336;17.172;2022-07-05T11:07:00;27.70;56.20
17587;DHT22;8912;52.336;17.172;2022-07-05T11:09:30;27.60;55.60
17587;DHT22;8912;52.336;17.172;2022-07-05T11:12:07;28.30;55.90
17587;DHT22;8912;52.336;17.172;2022-07-05T11:15:05;29.00;53.10
17587;DHT22;8912;52.336;17.172;2022-07-05T11:17:36;29.60;55.60
17587;DHT22;8912;52.336;17.172;2022-07-05T11:20:29;29.60;53.40
17587;DHT22;8912;52.336;17.172;2022-07-05T11:23:08;29.30;51.60
17587;DHT22;8912;52.336;17.172;2022-07-05T11:25:44;28.80;53.00
17587;DHT22;8912;52.336;17.172;2022-07-05T11:28:20;28.90;53.00
17587;DHT22;8912;52.336;17.172;2022-07-05T11:30:53;29.10;55.40
17587;DHT22;8912;52.336;17.172;2022-07-05T11:33:38;29.10;52.90
17587;DHT22;8912;52.336;17.172;2022-07-05T11:36:20;28.80;54.60
17587;DHT22;8912;52.336;17.172;2022-07-05T11:39:20;28.20;56.60
17587;DHT22;8912;52.336;17.172;2022-07-05T11:41:50;27.30;57.30
17587;DHT22;8912;52.336;17.172;2022-07-05T11:44:18;27.50;60.00
17587;DHT22;8912;52.336;17.172;2022-07-05T11:46:47;27.10;59.60
17587;DHT22;8912;52.336;17.172;2022-07-05T11:49:20;27.10;61.50
17587;DHT22;8912;52.336;17.172;2022-07-05T11:51:56;26.50;61.10
17587;DHT22;8912;52.336;17.172;2022-07-05T11:54:27;26.30;62.80
17587;DHT22;8912;52.336;17.172;2022-07-05T11:56:59;26.40;63.30
17587;DHT22;8912;52.336;17.172;2022-07-05T11:59:28;26.20;62.80
17587;DHT22;8912;52.336;17.172;2022-07-05T12:01:57;26.40;64.00
17587;DHT22;8912;52.336;17.172;2022-07-05T12:04:27;26.30;64.30
17587;DHT22;8912;52.336;17.172;2022-07-05T12:06:57;26.40;65.10
17587;DHT22;8912;52.336;17.172;2022-07-05T12:09:26;26.30;62.60
17587;DHT22;8912;52.336;17.172;2022-07-05T12:12:19;26.40;59.20
17587;DHT22;8912;52.336;17.172;2022-07-05T12:15:06;26.40;61.90
17587;DHT22;8912;52.336;17.172;2022-07-05T12:17:36;26.20;63.40
17587;DHT22;8912;52.336;17.172;2022-07-05T12:20:06;25.90;60.80
17587;DHT22;8912;52.336;17.172;2022-07-05T12:22:37;26.10;63.50
17587;DHT22;8912;52.336;17.172;2022-07-05T12:25:07;26.30;61.70
17587;DHT22;8912;52.336;17.172;2022-07-05T12:27:39;26.40;61.50
17587;DHT22;8912;52.336;17.172;2022-07-05T12:30:10;26.00;61.90
17587;DHT22;8912;52.336;17.172;2022-07-05T12:32:57;26.00;61.90
17587;DHT22;8912;52.336;17.172;2022-07-05T12:35:31;26.30;64.40
17587;DHT22;8912;52.336;17.172;2022-07-05T12:38:08;26.40;64.40
17587;DHT22;8912;52.336;17.172;2022-07-05T12:40:38;26.60;61.80
17587;DHT22;8912;52.336;17.172;2022-07-05T12:43:10;26.70;61.50
17587;DHT22;8912;52.336;17.172;2022-07-05T12:45:40;27.40;63.70
17587;DHT22;8912;52.336;17.172;2022-07-05T12:48:10;27.90;59.80
17587;DHT22;8912;52.336;17.172;2022-07-05T12:50:47;28.50;59.70
17587;DHT22;8912;52.336;17.172;2022-07-05T12:53:45;28.20;59.40
17587;DHT22;8912;52.336;17.172;2022-07-05T12:56:31;27.70;59.20
17587;DHT22;8912;52.336;17.172;2022-07-05T12:59:39;27.70;58.50
17587;DHT22;8912;52.336;17.172;2022-07-05T13:02:08;27.10;63.00
17587;DHT22;8912;52.336;17.172;2022-07-05T13:04:52;27.10;63.00
17587;DHT22;8912;52.336;17.172;2022-07-05T13:07:25;27.20;60.00
17587;DHT22;8912;52.336;17.172;2022-07-05T13:10:19;27.30;58.10
17587;DHT22;8912;52.336;17.172;2022-07-05T13:12:48;27.50;60.50
17587;DHT22;8912;52.336;17.172;2022-07-05T13:15:19;28.00;57.40
17587;DHT22;8912;52.336;17.172;2022-07-05T13:17:48;28.30;56.30
17587;DHT22;8912;52.336;17.172;2022-07-05T13:20:18;28.30;56.80
17587;DHT22;8912;52.336;17.172;2022-07-05T13:22:50;28.00;56.70
17587;DHT22;8912;52.336;17.172;2022-07-05T13:25:19;28.00;56.40
17587;DHT22;8912;52.336;17.172;2022-07-05T13:27:48;27.80;58.30
17587;DHT22;8912;52.336;17.172;2022-07-05T13:30:16;28.00;55.80
17587;DHT22;8912;52.336;17.172;2022-07-05T13:32:47;27.70;55.10
17587;DHT22;8912;52.336;17.172;2022-07-05T13:35:16;27.60;55.80
17587;DHT22;8912;52.336;17.172;2022-07-05T13:37:44;27.50;55.70
17587;DHT22;8912;52.336;17.172;2022-07-05T13:40:13;27.50;56.00
17587;DHT22;8912;52.336;17.172;2022-07-05T13:42:42;27.60;56.60
17587;DHT22;8912;52.336;17.172;2022-07-05T13:45:10;27.70;54.30
17587;DHT22;8912;52.336;17.172;2022-07-05T13:47:41;27.60;55.00
17587;DHT22;8912;52.336;17.172;2022-07-05T13:50:11;27.60;54.90
17587;DHT22;8912;52.336;17.172;2022-07-05T13:52:57;27.60;54.30
17587;DHT22;8912;52.336;17.172;2022-07-05T13:55:26;27.50;55.30
17587;DHT22;8912;52.336;17.172;2022-07-05T13:57:55;27.30;57.10
17587;DHT22;8912;52.336;17.172;2022-07-05T14:00:25;27.30;55.40
17587;DHT22;8912;52.336;17.172;2022-07-05T14:02:54;27.20;55.80
17587;DHT22;8912;52.336;17.172;2022-07-05T14:05:32;27.00;53.90
17587;DHT22;8912;52.336;17.172;2022-07-05T14:08:01;27.30;55.80
17587;DHT22;8912;52.336;17.172;2022-07-05T14:10:29;27.30;53.80
17587;DHT22;8912;52.336;17.172;2022-07-05T14:12:58;27.40;54.20
17587;DHT22;8912;52.336;17.172;2022-07-05T14:15:27;27.40;54.70
17587;DHT22;8912;52.336;17.172;2022-07-05T14:17:55;27.40;56.20
17587;DHT22;8912;52.336;17.172;2022-07-05T14:20:27;27.50;54.10
17587;DHT22;8912;52.336;17.172;2022-07-05T14:22:57;27.90;58.40
17587;DHT22;8912;52.336;17.172;2022-07-05T14:25:26;28.00;58.80
17587;DHT22;8912;52.336;17.172;2022-07-05T14:27:55;27.40;58.60
17587;DHT22;8912;52.336;17.172;2022-07-05T14:30:23;26.90;59.30
17587;DHT22;8912;52.336;17.172;2022-07-05T14:32:54;26.90;61.80
17587;DHT22;8912;52.336;17.172;2022-07-05T14:49:47;26.80;59.50
17587;DHT22;8912;52.336;17.172;2022-07-05T14:52:16;26.60;59.70
17587;DHT22;8912;52.336;17.172;2022-07-05T14:54:44;26.50;61.10
17587;DHT22;8912;52.336;17.172;2022-07-05T14:57:13;26.60;59.40
17587;DHT22;8912;52.336;17.172;2022-07-05T14:59:42;26.60;61.00
17587;DHT22;8912;52.336;17.172;2022-07-05T15:02:10;26.10;59.30
17587;DHT22;8912;52.336;17.172;2022-07-05T15:04:39;25.80;60.20
17587;DHT22;8912;52.336;17.172;2022-07-05T15:07:09;25.70;61.00
17587;DHT22;8912;52.336;17.172;2022-07-05T15:09:38;25.80;57.90
17587;DHT22;8912;52.336;17.172;2022-07-05T15:12:07;25.70;63.70
17587;DHT22;8912;52.336;17.172;2022-07-05T15:14:36;25.70;64.80
17587;DHT22;8912;52.336;17.172;2022-07-05T15:17:05;25.80;62.60
17587;DHT22;8912;52.336;17.172;2022-07-05T15:19:33;25.80;63.40
17587;DHT22;8912;52.336;17.172;2022-07-05T15:22:02;25.50;62.80
17587;DHT22;8912;52.336;17.172;2022-07-05T15:24:33;25.40;63.00
17587;DHT22;8912;52.336;17.172;2022-07-05T15:27:03;25.70;62.50
17587;DHT22;8912;52.336;17.172;2022-07-05T15:29:45;25.70;63.70
17587;DHT22;8912;52.336;17.172;2022-07-05T15:32:14;25.70;62.80
17587;DHT22;8912;52.336;17.172;2022-07-05T15:34:43;25.70;63.60
17587;DHT22;8912;52.336;17.172;2022-07-05T15:37:12;25.80;62.40
17587;DHT22;8912;52.336;17.172;2022-07-05T15:39:42;25.90;61.70
17587;DHT22;8912;52.336;17.172;2022-07-05T15:42:11;26.10;62.00
17587;DHT22;8912;52.336;17.172;2022-07-05T15:44:42;26.20;62.50
17587;DHT22;8912;52.336;17.172;2022-07-05T15:47:20;26.20;63.80
17587;DHT22;8912;52.336;17.172;2022-07-05T15:49:49;26.10;65.50
17587;DHT22;8912;52.336;17.172;2022-07-05T15:52:18;25.60;63.80
17587;DHT22;8912;52.336;17.172;2022-07-05T15:54:48;25.50;67.80
17587;DHT22;8912;52.336;17.172;2022-07-05T15:57:18;25.50;67.90
17587;DHT22;8912;52.336;17.172;2022-07-05T15:59:49;25.40;69.10
17587;DHT22;8912;52.336;17.172;2022-07-05T16:02:17;25.60;67.90
17587;DHT22;8912;52.336;17.172;2022-07-05T16:04:46;25.50;67.80
17587;DHT22;8912;52.336;17.172;2022-07-05T16:07:15;25.40;66.40
17587;DHT22;8912;52.336;17.172;2022-07-05T16:09:44;25.50;65.40
17587;DHT22;8912;52.336;17.172;2022-07-05T16:12:38;25.50;63.20
17587;DHT22;8912;52.336;17.172;2022-07-05T16:15:08;25.70;67.80
17587;DHT22;8912;52.336;17.172;2022-07-05T16:17:57;25.50;65.90